Time;durP1;ratioP1;P1;durP2;ratioP2;P2;SDS_P1;SDS_P2;PMS_P1;PMS_P2;Temp;Humidity;BMP_temperature;BMP_pressure;BME280_temperature;BME280_humidity;BME280_pressure;Samples;Min_cycle;Max_cycle;Signal;HPM_P1;HPM_P2
2023/01/06 00:01:57;;;;;;;;;;;;;;;;;;5000623;28;1162;-61
2023/01/06 00:04:23;;;;;;;;;;;;;;;;;;5003591;28;5747;-62
2023/01/06 00:06:48;;;;;;;;;;;;;;;;;;5004870;28;4499;-63
2023/01/06 00:09:13;;;;;;;;;;;;;;;;;;5002259;28;5001;-62
2023/01/06 00:11:38;;;;;;;;;;;;;;;;;;5008622;28;5076;-60
2023/01/06 00:14:04;;;;;;;;;;;;;;;;;;4999012;28;3240;-60
2023/01/06 00:16:29;;;;;;;;;;;;;;;;;;5001915;28;5046;-61
2023/01/06 00:18:55;;;;;;;;;;;;;;;;;;5002767;28;4989;-59
2023/01/06 00:21:20;;;;;;;;;;;;;;;;;;5005833;28;5414;-61
2023/01/06 00:23:45;;;;;;;;;;;;;;;;;;5009932;28;4666;-61
2023/01/06 00:26:10;;;;;;;;;;;;;;;;;;5001855;28;3203;-61
2023/01/06 00:28:36;;;;;;;;;;;;;;;;;;5005629;28;4406;-61
2023/01/06 00:31:05;;;;;;;;;;;;;;;;;;4987075;28;4840;-59
2023/01/06 00:33:31;;;;;;;;;;;;;;;;;;5003458;28;4619;-60
2023/01/06 00:35:59;;;;;;;;;;;;;;;;;;4999748;28;5164;-61
2023/01/06 00:38:24;;;;;;;;;;;;;;;;;;5005657;28;5218;-62
2023/01/06 00:40:50;;;;;;;;;;;;;;;;;;5002454;28;1407;-62
2023/01/06 00:43:15;;;;;;;;;;;;;;;;;;5003528;28;4841;-61
2023/01/06 00:45:40;;;;;;;;;;;;;;;;;;5002635;28;5224;-61
2023/01/06 00:48:06;;;;;;;;;;;;;;;;;;5004995;28;4904;-61
2023/01/06 00:50:31;;;;;;;;;;;;;;;;;;5002402;28;5080;-62
2023/01/06 00:52:56;;;;;;;;;;;;;;;;;;5005169;28;1509;-63
2023/01/06 00:55:21;;;;;;;;;;;;;;;;;;4991328;28;5024;-63
2023/01/06 00:57:48;;;;;;;;;;;;;;;;;;5004678;28;5417;-64
2023/01/06 01:00:14;;;;;;;;;;;;;;;;;;5005930;28;5061;-64
2023/01/06 01:02:39;;;;;;;;;;;;;;;;;;5003307;28;5080;-65
2023/01/06 01:05:04;;;;;;;;;;;;;;;;;;5001769;28;3597;-62
2023/01/06 01:07:30;;;;;;;;;;;;;;;;;;4982922;28;5205;-63
2023/01/06 01:09:55;;;;;;;;;;;;;;;;;;4992548;28;4476;-63
2023/01/06 01:12:20;;;;;;;;;;;;;;;;;;4983075;28;4852;-63
2023/01/06 01:14:52;;;;;;;;;;;;;;;;;;4980308;28;5160;-62
2023/01/06 01:17:27;;;;;;;;;;;;;;;;;;4983534;28;5181;-63
2023/01/06 01:19:54;;;;;;;;;;;;;;;;;;4988099;28;4393;-63
2023/01/06 01:22:19;;;;;;;;;;;;;;;;;;4990086;28;5105;-62
2023/01/06 01:24:44;;;;;;;;;;;;;;;;;;4989699;28;4938;-63
2023/01/06 01:27:10;;;;;;;;;;;;;;;;;;4982977;28;4587;-61
2023/01/06 01:29:35;;;;;;;;;;;;;;;;;;4985621;28;5184;-62
2023/01/06 01:32:00;;;;;;;;;;;;;;;;;;4986347;28;1162;-63
2023/01/06 01:34:25;;;;;;;;;;;;;;;;;;4986754;28;5094;-63
2023/01/06 01:36:51;;;;;;;;;;;;;;;;;;4985828;28;5167;-61
2023/01/06 01:39:18;;;;;;;;;;;;;;;;;;4990861;28;4902;-64
2023/01/06 01:41:43;;;;;;;;;;;;;;;;;;4986453;28;5000;-63
2023/01/06 01:44:28;;;;;;;;;;;;;;;;;;4987748;28;3466;-64
2023/01/06 01:46:53;;;;;;;;;;;;;;;;;;4989256;28;5165;-63
2023/01/06 01:49:19;;;;;;;;;;;;;;;;;;4988268;28;5198;-63
2023/01/06 01:51:45;;;;;;;;;;;;;;;;;;5005138;28;5168;-64
2023/01/06 01:54:16;;;;;;;;;;;;;;;;;;5012969;28;5202;-61
2023/01/06 01:56:43;;;;;;;;;;;;;;;;;;5003917;28;4521;-60
2023/01/06 01:59:09;;;;;;;;;;;;;;;;;;4987245;28;3466;-62
2023/01/06 02:01:35;;;;;;;;;;;;;;;;;;4988268;28;5595;-62
2023/01/06 02:04:00;;;;;;;;;;;;;;;;;;4988481;28;4464;-62
2023/01/06 02:06:25;;;;;;;;;;;;;;;;;;4986087;28;4950;-61
2023/01/06 02:08:56;;;;;;;;;;;;;;;;;;4990065;28;4600;-63
2023/01/06 02:11:22;;;;;;;;;;;;;;;;;;4983041;28;5335;-60
2023/01/06 02:13:47;;;;;;;;;;;;;;;;;;4987336;28;1426;-64
2023/01/06 02:16:21;;;;;;;;;;;;;;;;;;4986827;28;5479;-63
2023/01/06 02:18:49;;;;;;;;;;;;;;;;;;4998863;28;4463;-64
2023/01/06 02:21:14;;;;;;;;;;;;;;;;;;4993734;28;5047;-63
2023/01/06 02:23:55;;;;;;;;;;;;;;;;;;4985820;28;5064;-62
2023/01/06 02:26:26;;;;;;;;;;;;;;;;;;4985689;28;4516;-63
2023/01/06 02:28:58;;;;;;;;;;;;;;;;;;4990203;28;1129;-61
2023/01/06 02:31:29;;;;;;;;;;;;;;;;;;4988212;28;4617;-62
2023/01/06 02:33:57;;;;;;;;;;;;;;;;;;4988270;28;5117;-62
2023/01/06 02:36:28;;;;;;;;;;;;;;;;;;4984787;28;5406;-62
2023/01/06 02:39:12;;;;;;;;;;;;;;;;;;4987180;28;5127;-62
2023/01/06 02:41:56;;;;;;;;;;;;;;;;;;4984459;28;5146;-64
2023/01/06 02:44:41;;;;;;;;;;;;;;;;;;4985353;28;4675;-62
2023/01/06 02:47:10;;;;;;;;;;;;;;;;;;4986559;28;3256;-62
2023/01/06 02:49:35;;;;;;;;;;;;;;;;;;4989375;28;5050;-62
2023/01/06 02:52:06;;;;;;;;;;;;;;;;;;5003209;28;4920;-62
2023/01/06 02:54:49;;;;;;;;;;;;;;;;;;4995362;28;5099;-63
2023/01/06 02:57:37;;;;;;;;;;;;;;;;;;5011469;28;5502;-61
2023/01/06 03:00:26;;;;;;;;;;;;;;;;;;4999466;28;4651;-63
2023/01/06 03:02:58;;;;;;;;;;;;;;;;;;5001260;28;5139;-62
2023/01/06 03:05:23;;;;;;;;;;;;;;;;;;5005942;28;4955;-62
2023/01/06 03:07:48;;;;;;;;;;;;;;;;;;5001722;28;3392;-62
2023/01/06 03:10:14;;;;;;;;;;;;;;;;;;5007504;28;5047;-62
2023/01/06 03:12:45;;;;;;;;;;;;;;;;;;5003856;28;4923;-61
2023/01/06 03:15:10;;;;;;;;;;;;;;;;;;5004253;28;4952;-60
2023/01/06 03:17:35;;;;;;;;;;;;;;;;;;5003999;28;5026;-60
2023/01/06 03:20:00;;;;;;;;;;;;;;;;;;5007584;28;4443;-63
2023/01/06 03:22:26;;;;;;;;;;;;;;;;;;5005951;28;5009;-60
2023/01/06 03:24:51;;;;;;;;;;;;;;;;;;5006093;28;5123;-63
2023/01/06 03:27:16;;;;;;;;;;;;;;;;;;5008133;28;4475;-61
2023/01/06 03:29:42;;;;;;;;;;;;;;;;;;5007138;28;5071;-61
2023/01/06 03:32:10;;;;;;;;;;;;;;;;;;5003049;28;3549;-61
2023/01/06 03:34:42;;;;;;;;;;;;;;;;;;5007616;28;4647;-61
2023/01/06 03:37:26;;;;;;;;;;;;;;;;;;5002682;28;5263;-61
2023/01/06 03:40:10;;;;;;;;;;;;;;;;;;5004025;28;5260;-62
2023/01/06 03:43:10;;;;;;;;;;;;;;;;;;4999855;28;5514;-62
2023/01/06 03:45:35;;;;;;;;;;;;;;;;;;5004372;28;4692;-61
2023/01/06 03:48:12;;;;;;;;;;;;;;;;;;5004729;28;4913;-61
2023/01/06 03:50:38;;;;;;;;;;;;;;;;;;5002964;28;5078;-63
2023/01/06 03:53:03;;;;;;;;;;;;;;;;;;4996779;28;3256;-62
2023/01/06 03:55:29;;;;;;;;;;;;;;;;;;5006436;28;4667;-61
2023/01/06 03:57:55;;;;;;;;;;;;;;;;;;5003027;28;4893;-62
2023/01/06 04:00:20;;;;;;;;;;;;;;;;;;4997753;28;4764;-62
2023/01/06 04:02:45;;;;;;;;;;;;;;;;;;5001989;28;5259;-62
2023/01/06 04:05:12;;;;;;;;;;;;;;;;;;4998507;28;3328;-61
2023/01/06 04:07:37;;;;;;;;;;;;;;;;;;5003845;28;5044;-61
2023/01/06 04:10:03;;;;;;;;;;;;;;;;;;5001978;28;4501;-62
2023/01/06 04:12:37;;;;;;;;;;;;;;;;;;5001099;28;5063;-62
2023/01/06 04:15:13;;;;;;;;;;;;;;;;;;5003188;28;5175;-62
2023/01/06 04:17:38;;;;;;;;;;;;;;;;;;5002260;28;4942;-62
2023/01/06 04:20:04;;;;;;;;;;;;;;;;;;5022762;28;4367;-62
2023/01/06 04:22:29;;;;;;;;;;;;;;;;;;5002306;28;5063;-62
2023/01/06 04:24:55;;;;;;;;;;;;;;;;;;5004084;28;5222;-62
2023/01/06 04:27:20;;;;;;;;;;;;;;;;;;5005489;28;5064;-62
2023/01/06 04:29:45;;;;;;;;;;;;;;;;;;5005096;28;5123;-62
2023/01/06 04:32:10;;;;;;;;;;;;;;;;;;5005012;28;3455;-62
2023/01/06 04:34:36;;;;;;;;;;;;;;;;;;4998124;28;4425;-62
2023/01/06 04:37:01;;;;;;;;;;;;;;;;;;4996799;28;5184;-62
2023/01/06 04:39:26;;;;;;;;;;;;;;;;;;5003365;28;5030;-63
2023/01/06 04:41:51;;;;;;;;;;;;;;;;;;4999051;28;5050;-62
2023/01/06 04:44:17;;;;;;;;;;;;;;;;;;5008557;28;5320;-61
2023/01/06 04:46:42;;;;;;;;;;;;;;;;;;5010937;28;1286;-61
2023/01/06 04:49:07;;;;;;;;;;;;;;;;;;5007661;28;5044;-61
2023/01/06 04:51:32;;;;;;;;;;;;;;;;;;5004308;28;4711;-62
2023/01/06 04:53:58;;;;;;;;;;;;;;;;;;5007038;28;6014;-63
2023/01/06 04:56:23;;;;;;;;;;;;;;;;;;5011737;28;5529;-65
2023/01/06 04:58:52;;;;;;;;;;;;;;;;;;5010391;28;1959;-61
2023/01/06 05:01:17;;;;;;;;;;;;;;;;;;5001269;28;5184;-61
2023/01/06 05:03:42;;;;;;;;;;;;;;;;;;5010147;28;4952;-60
2023/01/06 05:06:08;;;;;;;;;;;;;;;;;;5011380;28;5076;-60
2023/01/06 05:08:34;;;;;;;;;;;;;;;;;;5009587;28;5083;-61
2023/01/06 05:11:00;;;;;;;;;;;;;;;;;;5005258;28;3426;-61
2023/01/06 05:13:25;;;;;;;;;;;;;;;;;;5008739;28;5025;-62
2023/01/06 05:15:50;;;;;;;;;;;;;;;;;;5007841;28;5039;-61
2023/01/06 05:18:15;;;;;;;;;;;;;;;;;;5010405;28;4532;-60
2023/01/06 05:20:41;;;;;;;;;;;;;;;;;;5009309;28;4922;-62
2023/01/06 05:23:06;;;;;;;;;;;;;;;;;;5010367;28;3389;-60
2023/01/06 05:25:31;;;;;;;;;;;;;;;;;;5007200;28;4933;-60
2023/01/06 05:27:56;;;;;;;;;;;;;;;;;;5002237;28;5156;-62
2023/01/06 05:30:21;;;;;;;;;;;;;;;;;;5010546;28;5199;-62
2023/01/06 05:32:47;;;;;;;;;;;;;;;;;;5009943;28;5066;-61
2023/01/06 05:35:12;;;;;;;;;;;;;;;;;;5007205;28;1414;-61
2023/01/06 05:37:37;;;;;;;;;;;;;;;;;;5006251;28;4760;-61
2023/01/06 05:40:02;;;;;;;;;;;;;;;;;;5008443;28;4479;-61
2023/01/06 05:42:28;;;;;;;;;;;;;;;;;;5006684;28;4939;-62
2023/01/06 05:44:53;;;;;;;;;;;;;;;;;;5009203;28;5054;-62
2023/01/06 05:47:18;;;;;;;;;;;;;;;;;;5004333;28;5286;-61
2023/01/06 05:49:44;;;;;;;;;;;;;;;;;;4993417;28;1146;-61
2023/01/06 05:52:09;;;;;;;;;;;;;;;;;;5005268;28;4990;-62
2023/01/06 05:54:34;;;;;;;;;;;;;;;;;;5007349;28;5057;-63
2023/01/06 05:57:00;;;;;;;;;;;;;;;;;;5002285;28;4509;-62
2023/01/06 05:59:25;;;;;;;;;;;;;;;;;;5004120;28;5125;-62
2023/01/06 06:01:50;;;;;;;;;;;;;;;;;;5009971;28;2238;-62
2023/01/06 06:04:15;;;;;;;;;;;;;;;;;;5010108;28;5008;-61
2023/01/06 06:06:41;;;;;;;;;;;;;;;;;;5004989;28;5121;-62
2023/01/06 06:09:06;;;;;;;;;;;;;;;;;;5010141;28;5474;-62
2023/01/06 06:11:31;;;;;;;;;;;;;;;;;;5008752;28;4555;-62
2023/01/06 06:13:56;;;;;;;;;;;;;;;;;;5001212;28;1111;-61
2023/01/06 06:16:23;;;;;;;;;;;;;;;;;;4992396;28;4462;-61
2023/01/06 06:18:52;;;;;;;;;;;;;;;;;;4987754;28;5104;-62
2023/01/06 06:21:19;;;;;;;;;;;;;;;;;;4983924;28;5168;-61
2023/01/06 06:23:44;;;;;;;;;;;;;;;;;;4988362;28;4638;-61
2023/01/06 06:26:09;;;;;;;;;;;;;;;;;;4989956;28;3248;-61
2023/01/06 06:28:35;;;;;;;;;;;;;;;;;;4987633;28;4957;-62
2023/01/06 06:31:06;;;;;;;;;;;;;;;;;;4985155;28;5058;-61
2023/01/06 06:33:32;;;;;;;;;;;;;;;;;;4986547;28;5118;-62
2023/01/06 06:35:57;;;;;;;;;;;;;;;;;;4987002;28;5100;-61
2023/01/06 06:38:22;;;;;;;;;;;;;;;;;;4989723;28;5246;-62
2023/01/06 06:40:48;;;;;;;;;;;;;;;;;;4982845;28;3340;-62
2023/01/06 06:43:13;;;;;;;;;;;;;;;;;;4984551;28;5226;-63
2023/01/06 06:45:38;;;;;;;;;;;;;;;;;;4985071;28;5618;-62
2023/01/06 06:48:04;;;;;;;;;;;;;;;;;;4979403;28;5049;-62
2023/01/06 06:50:29;;;;;;;;;;;;;;;;;;4981156;28;5174;-67
2023/01/06 06:52:54;;;;;;;;;;;;;;;;;;4982751;28;3454;-63
2023/01/06 06:55:20;;;;;;;;;;;;;;;;;;4991928;28;5077;-64
2023/01/06 06:57:45;;;;;;;;;;;;;;;;;;4986977;28;5124;-62
2023/01/06 07:00:10;;;;;;;;;;;;;;;;;;4985156;28;4545;-61
2023/01/06 07:02:35;;;;;;;;;;;;;;;;;;4989768;28;5528;-63
2023/01/06 07:05:01;;;;;;;;;;;;;;;;;;4985699;28;3255;-64
2023/01/06 07:07:27;;;;;;;;;;;;;;;;;;4986210;28;4619;-64
2023/01/06 07:09:52;;;;;;;;;;;;;;;;;;4989021;28;4907;-63
2023/01/06 07:12:17;;;;;;;;;;;;;;;;;;4987683;28;4460;-64
2023/01/06 07:14:42;;;;;;;;;;;;;;;;;;4988083;28;4871;-63
2023/01/06 07:17:08;;;;;;;;;;;;;;;;;;4982559;28;3326;-64
2023/01/06 07:19:33;;;;;;;;;;;;;;;;;;4985545;28;5087;-64
2023/01/06 07:21:58;;;;;;;;;;;;;;;;;;4988812;28;4483;-64
2023/01/06 07:24:23;;;;;;;;;;;;;;;;;;4988912;28;5041;-64
2023/01/06 07:26:49;;;;;;;;;;;;;;;;;;4987895;28;5009;-63
2023/01/06 07:29:14;;;;;;;;;;;;;;;;;;4984980;28;5137;-57
2023/01/06 07:31:39;;;;;;;;;;;;;;;;;;4981837;28;3428;-63
2023/01/06 07:34:05;;;;;;;;;;;;;;;;;;4983679;28;5447;-63
2023/01/06 07:36:30;;;;;;;;;;;;;;;;;;4983286;28;5161;-63
2023/01/06 07:38:55;;;;;;;;;;;;;;;;;;4986034;28;5107;-63
2023/01/06 07:41:20;;;;;;;;;;;;;;;;;;4979934;28;5190;-64
2023/01/06 07:43:46;;;;;;;;;;;;;;;;;;4985161;28;3274;-62
2023/01/06 07:46:11;;;;;;;;;;;;;;;;;;4985305;28;4506;-64
2023/01/06 07:48:36;;;;;;;;;;;;;;;;;;4983927;28;5079;-62
2023/01/06 07:51:02;;;;;;;;;;;;;;;;;;4979499;28;5153;-63
2023/01/06 07:53:27;;;;;;;;;;;;;;;;;;4983093;28;5099;-64
2023/01/06 07:55:52;;;;;;;;;;;;;;;;;;4986359;28;3253;-63
2023/01/06 07:58:18;;;;;;;;;;;;;;;;;;4980058;28;5092;-61
2023/01/06 08:00:43;;;;;;;;;;;;;;;;;;4982177;28;5022;-62
2023/01/06 08:03:10;;;;;;;;;;;;;;;;;;4980760;28;5128;-63
2023/01/06 08:05:36;;;;;;;;;;;;;;;;;;4986812;28;4717;-63
2023/01/06 08:08:01;;;;;;;;;;;;;;;;;;4986061;28;3494;-65
2023/01/06 08:10:26;;;;;;;;;;;;;;;;;;4984943;28;4531;-62
2023/01/06 08:12:51;;;;;;;;;;;;;;;;;;4985729;28;5156;-64
2023/01/06 08:15:17;;;;;;;;;;;;;;;;;;4983163;28;4932;-62
2023/01/06 08:17:42;;;;;;;;;;;;;;;;;;4985500;28;4701;-64
2023/01/06 08:20:08;;;;;;;;;;;;;;;;;;4987526;28;4426;-62
2023/01/06 08:22:33;;;;;;;;;;;;;;;;;;4974753;28;4884;-63
2023/01/06 08:24:59;;;;;;;;;;;;;;;;;;4982602;28;5219;-63
2023/01/06 08:27:25;;;;;;;;;;;;;;;;;;4979968;28;4910;-64
2023/01/06 08:29:53;;;;;;;;;;;;;;;;;;4979586;28;4947;-65
2023/01/06 08:32:18;;;;;;;;;;;;;;;;;;4985003;28;5230;-64
2023/01/06 08:34:44;;;;;;;;;;;;;;;;;;4985088;28;3401;-63
2023/01/06 08:37:09;;;;;;;;;;;;;;;;;;4978576;28;4544;-62
2023/01/06 08:39:34;;;;;;;;;;;;;;;;;;4984526;28;4748;-62
2023/01/06 08:41:59;;;;;;;;;;;;;;;;;;4986329;28;4552;-63
2023/01/06 08:44:25;;;;;;;;;;;;;;;;;;4987564;28;5159;-63
2023/01/06 08:46:50;;;;;;;;;;;;;;;;;;4984458;28;3483;-63
2023/01/06 08:49:15;;;;;;;;;;;;;;;;;;4981984;28;4883;-65
2023/01/06 08:51:40;;;;;;;;;;;;;;;;;;4985361;28;5111;-66
2023/01/06 08:54:06;;;;;;;;;;;;;;;;;;4983733;28;5425;-68
2023/01/06 08:56:31;;;;;;;;;;;;;;;;;;4980180;28;4909;-66
2023/01/06 08:58:57;;;;;;;;;;;;;;;;;;4983455;28;3547;-68
2023/01/06 09:01:24;;;;;;;;;;;;;;;;;;4984156;28;5116;-69
2023/01/06 09:03:49;;;;;;;;;;;;;;;;;;4984387;28;5162;-66
2023/01/06 09:06:14;;;;;;;;;;;;;;;;;;4980288;28;5090;-66
2023/01/06 09:08:40;;;;;;;;;;;;;;;;;;4983335;28;5051;-66
2023/01/06 09:11:05;;;;;;;;;;;;;;;;;;4983533;28;2198;-68
2023/01/06 09:13:31;;;;;;;;;;;;;;;;;;4982517;28;5687;-65
2023/01/06 09:15:56;;;;;;;;;;;;;;;;;;4985903;28;4580;-64
2023/01/06 09:18:21;;;;;;;;;;;;;;;;;;4987514;28;5000;-65
2023/01/06 09:20:46;;;;;;;;;;;;;;;;;;4985029;28;5010;-63
2023/01/06 09:23:12;;;;;;;;;;;;;;;;;;4986385;28;3342;-64
2023/01/06 09:25:37;;;;;;;;;;;;;;;;;;4985109;28;4641;-66
2023/01/06 09:28:02;;;;;;;;;;;;;;;;;;4987862;28;4658;-67
2023/01/06 09:30:27;;;;;;;;;;;;;;;;;;4989790;28;5483;-70
2023/01/06 09:32:53;;;;;;;;;;;;;;;;;;4989905;28;5087;-69
2023/01/06 09:35:18;;;;;;;;;;;;;;;;;;4988984;28;5088;-65
2023/01/06 09:37:43;;;;;;;;;;;;;;;;;;4989200;28;1424;-65
2023/01/06 09:40:13;;;;;;;;;;;;;;;;;;4989427;28;5129;-65
2023/01/06 09:42:41;;;;;;;;;;;;;;;;;;4988102;28;4925;-66
2023/01/06 09:45:13;;;;;;;;;;;;;;;;;;4984374;28;4571;-65
2023/01/06 09:47:42;;;;;;;;;;;;;;;;;;5000519;28;4754;-65
2023/01/06 09:50:10;;;;;;;;;;;;;;;;;;4981931;28;1159;-64
2023/01/06 09:52:54;;;;;;;;;;;;;;;;;;4984155;28;4832;-66
2023/01/06 09:55:20;;;;;;;;;;;;;;;;;;4998724;28;4964;-64
2023/01/06 09:57:54;;;;;;;;;;;;;;;;;;5001824;28;5145;-65
2023/01/06 10:00:31;;;;;;;;;;;;;;;;;;5002719;28;5081;-63
2023/01/06 10:02:56;;;;;;;;;;;;;;;;;;5007719;28;4992;-65
2023/01/06 10:05:27;;;;;;;;;;;;;;;;;;5008503;28;5020;-65
2023/01/06 10:07:56;;;;;;;;;;;;;;;;;;5005316;28;3414;-66
2023/01/06 10:10:21;;;;;;;;;;;;;;;;;;5004093;28;5112;-65
2023/01/06 10:12:47;;;;;;;;;;;;;;;;;;5005839;28;5383;-65
2023/01/06 10:15:12;;;;;;;;;;;;;;;;;;5002351;28;4724;-64
2023/01/06 10:17:55;;;;;;;;;;;;;;;;;;5008168;28;4462;-66
2023/01/06 10:20:21;;;;;;;;;;;;;;;;;;5005418;28;4946;-64
2023/01/06 10:22:50;;;;;;;;;;;;;;;;;;5003510;28;3642;-62
2023/01/06 10:25:22;;;;;;;;;;;;;;;;;;5002049;28;5103;-62
2023/01/06 10:27:52;;;;;;;;;;;;;;;;;;5003939;28;4877;-64
2023/01/06 10:30:23;;;;;;;;;;;;;;;;;;5008271;28;4994;-67
2023/01/06 10:32:49;;;;;;;;;;;;;;;;;;5016788;28;5092;-66
2023/01/06 10:35:16;;;;;;;;;;;;;;;;;;5008391;28;5288;-59
2023/01/06 10:37:42;;;;;;;;;;;;;;;;;;5005798;28;3249;-64
2023/01/06 10:40:21;;;;;;;;;;;;;;;;;;5003622;28;5165;-63
2023/01/06 10:42:55;;;;;;;;;;;;;;;;;;5010012;28;5169;-61
2023/01/06 10:45:21;;;;;;;;;;;;;;;;;;5001148;28;4733;-65
2023/01/06 10:47:46;;;;;;;;;;;;;;;;;;5001774;28;5057;-63
2023/01/06 10:50:15;;;;;;;;;;;;;;;;;;5009600;28;1173;-63
2023/01/06 10:52:40;;;;;;;;;;;;;;;;;;4985546;28;4567;-63
2023/01/06 10:55:06;;;;;;;;;;;;;;;;;;4987724;28;5113;-64
2023/01/06 10:57:37;;;;;;;;;;;;;;;;;;4992647;28;4775;-62
2023/01/06 11:00:06;;;;;;;;;;;;;;;;;;5004799;28;5046;-65
2023/01/06 11:02:31;;;;;;;;;;;;;;;;;;5001611;28;4723;-62
2023/01/06 11:04:59;;;;;;;;;;;;;;;;;;5002969;28;3452;-64
2023/01/06 11:07:24;;;;;;;;;;;;;;;;;;5011153;28;5157;-65
2023/01/06 11:09:50;;;;;;;;;;;;;;;;;;5001532;28;4717;-64
2023/01/06 11:12:16;;;;;;;;;;;;;;;;;;4996205;28;5136;-65
2023/01/06 11:14:41;;;;;;;;;;;;;;;;;;5001639;28;4554;-65
2023/01/06 11:17:08;;;;;;;;;;;;;;;;;;5006760;28;1677;-65
2023/01/06 11:19:35;;;;;;;;;;;;;;;;;;5005334;28;5140;-66
2023/01/06 11:22:00;;;;;;;;;;;;;;;;;;5000577;28;4878;-66
2023/01/06 11:24:26;;;;;;;;;;;;;;;;;;5006829;28;4891;-66
2023/01/06 11:26:58;;;;;;;;;;;;;;;;;;4999904;28;5106;-65
2023/01/06 11:29:33;;;;;;;;;;;;;;;;;;4999687;28;4984;-66
2023/01/06 11:32:02;;;;;;;;;;;;;;;;;;4998476;28;3441;-68
2023/01/06 11:34:28;;;;;;;;;;;;;;;;;;5005842;28;4880;-65
2023/01/06 11:36:53;;;;;;;;;;;;;;;;;;5005309;28;5223;-67
2023/01/06 11:39:21;;;;;;;;;;;;;;;;;;5003623;28;4551;-67
2023/01/06 11:41:47;;;;;;;;;;;;;;;;;;5005876;28;5115;-67
2023/01/06 11:44:13;;;;;;;;;;;;;;;;;;5006018;28;1911;-64
2023/01/06 11:46:39;;;;;;;;;;;;;;;;;;5000057;28;5087;-68
2023/01/06 11:49:28;;;;;;;;;;;;;;;;;;5000961;28;5070;-69
2023/01/06 11:52:01;;;;;;;;;;;;;;;;;;4979207;28;5237;-67
2023/01/06 11:54:29;;;;;;;;;;;;;;;;;;4997708;28;5293;-70
2023/01/06 11:56:58;;;;;;;;;;;;;;;;;;5004782;28;5096;-66
2023/01/06 11:59:24;;;;;;;;;;;;;;;;;;5006716;28;4960;-68
2023/01/06 12:01:51;;;;;;;;;;;;;;;;;;5002914;28;3294;-68
2023/01/06 12:04:35;;;;;;;;;;;;;;;;;;5006063;28;4928;-64
2023/01/06 12:07:07;;;;;;;;;;;;;;;;;;4999879;28;5135;-69
2023/01/06 12:09:35;;;;;;;;;;;;;;;;;;4998810;28;5094;-61
2023/01/06 12:12:06;;;;;;;;;;;;;;;;;;5000161;28;5067;-61
2023/01/06 12:14:34;;;;;;;;;;;;;;;;;;5003048;28;5027;-61
2023/01/06 12:17:12;;;;;;;;;;;;;;;;;;5002103;28;1027;-61
2023/01/06 12:19:43;;;;;;;;;;;;;;;;;;4997306;28;4542;-61
2023/01/06 12:22:20;;;;;;;;;;;;;;;;;;4997111;28;5121;-62
2023/01/06 12:24:45;;;;;;;;;;;;;;;;;;4997812;28;5207;-61
2023/01/06 12:27:10;;;;;;;;;;;;;;;;;;5008142;28;5060;-61
2023/01/06 12:29:36;;;;;;;;;;;;;;;;;;5004012;28;5378;-61
2023/01/06 12:32:07;;;;;;;;;;;;;;;;;;5007074;28;1346;-61
2023/01/06 12:34:36;;;;;;;;;;;;;;;;;;5003852;28;4638;-59
2023/01/06 12:37:06;;;;;;;;;;;;;;;;;;5003399;28;4917;-60
2023/01/06 12:39:44;;;;;;;;;;;;;;;;;;5005969;28;5121;-59
2023/01/06 12:42:14;;;;;;;;;;;;;;;;;;5000720;28;4894;-61
2023/01/06 12:44:58;;;;;;;;;;;;;;;;;;4995428;28;5206;-61
2023/01/06 12:47:26;;;;;;;;;;;;;;;;;;5007689;28;5014;-61
2023/01/06 12:49:55;;;;;;;;;;;;;;;;;;5004383;28;1252;-62
2023/01/06 12:52:27;;;;;;;;;;;;;;;;;;5002344;28;4912;-62
2023/01/06 12:54:53;;;;;;;;;;;;;;;;;;5006343;28;5140;-65
2023/01/06 12:57:37;;;;;;;;;;;;;;;;;;5006548;28;5004;-60
2023/01/06 13:00:02;;;;;;;;;;;;;;;;;;4996164;28;4599;-61
2023/01/06 13:02:46;;;;;;;;;;;;;;;;;;5005671;28;5199;-61
2023/01/06 13:05:30;;;;;;;;;;;;;;;;;;5004152;28;3283;-57
2023/01/06 13:08:05;;;;;;;;;;;;;;;;;;5005925;28;5092;-62
2023/01/06 13:10:32;;;;;;;;;;;;;;;;;;4998765;28;4966;-63
2023/01/06 13:13:16;;;;;;;;;;;;;;;;;;5004261;28;5060;-62
2023/01/06 13:15:41;;;;;;;;;;;;;;;;;;5004619;28;4583;-64
2023/01/06 13:18:15;;;;;;;;;;;;;;;;;;4987630;28;5095;-63
2023/01/06 13:20:44;;;;;;;;;;;;;;;;;;5002662;28;4650;-63
2023/01/06 13:23:28;;;;;;;;;;;;;;;;;;4988413;28;3318;-61
2023/01/06 13:26:06;;;;;;;;;;;;;;;;;;5005026;28;5014;-62
2023/01/06 13:28:47;;;;;;;;;;;;;;;;;;5007585;28;5010;-62
2023/01/06 13:31:12;;;;;;;;;;;;;;;;;;5002877;28;5089;-62
2023/01/06 13:33:58;;;;;;;;;;;;;;;;;;5010716;28;4463;-62
2023/01/06 13:36:26;;;;;;;;;;;;;;;;;;5000309;28;5056;-62
2023/01/06 13:38:58;;;;;;;;;;;;;;;;;;5010009;28;4652;-62
2023/01/06 13:41:25;;;;;;;;;;;;;;;;;;5004795;28;5541;-62
2023/01/06 13:43:50;;;;;;;;;;;;;;;;;;5004756;28;3078;-61
2023/01/06 13:46:16;;;;;;;;;;;;;;;;;;5018528;28;5458;-62
2023/01/06 13:48:43;;;;;;;;;;;;;;;;;;5019168;28;5050;-63
2023/01/06 13:51:09;;;;;;;;;;;;;;;;;;5015697;28;4997;-62
2023/01/06 13:53:38;;;;;;;;;;;;;;;;;;5020452;28;4766;-61
2023/01/06 13:56:12;;;;;;;;;;;;;;;;;;5007603;28;2227;-62
2023/01/06 13:58:38;;;;;;;;;;;;;;;;;;4999398;28;4857;-62
2023/01/06 14:01:10;;;;;;;;;;;;;;;;;;5009087;28;4873;-61
2023/01/06 14:03:38;;;;;;;;;;;;;;;;;;5009974;28;5142;-62
2023/01/06 14:06:03;;;;;;;;;;;;;;;;;;4998484;28;5152;-61
2023/01/06 14:08:33;;;;;;;;;;;;;;;;;;5008697;28;5081;-62
2023/01/06 14:11:02;;;;;;;;;;;;;;;;;;5004313;28;1280;-61
2023/01/06 14:13:31;;;;;;;;;;;;;;;;;;5003428;28;4971;-62
2023/01/06 14:16:01;;;;;;;;;;;;;;;;;;5005963;28;5046;-61
2023/01/06 14:18:30;;;;;;;;;;;;;;;;;;5008634;28;4935;-62
2023/01/06 14:21:00;;;;;;;;;;;;;;;;;;5005428;28;5072;-63
2023/01/06 14:23:26;;;;;;;;;;;;;;;;;;5008439;28;4929;-62
2023/01/06 14:25:52;;;;;;;;;;;;;;;;;;5010051;28;1907;-61
2023/01/06 14:28:18;;;;;;;;;;;;;;;;;;4991253;28;5639;-61
2023/01/06 14:30:43;;;;;;;;;;;;;;;;;;4994925;28;5187;-62
2023/01/06 14:33:27;;;;;;;;;;;;;;;;;;5004955;28;4533;-62
2023/01/06 14:35:58;;;;;;;;;;;;;;;;;;4994813;28;5045;-61
2023/01/06 14:38:25;;;;;;;;;;;;;;;;;;4995244;28;5154;-63
2023/01/06 14:40:51;;;;;;;;;;;;;;;;;;5007869;28;3264;-62
2023/01/06 14:43:41;;;;;;;;;;;;;;;;;;5009157;28;5089;-62
2023/01/06 14:46:26;;;;;;;;;;;;;;;;;;4994857;28;5495;-62
2023/01/06 14:49:03;;;;;;;;;;;;;;;;;;5010694;28;4998;-60
2023/01/06 14:51:28;;;;;;;;;;;;;;;;;;5007169;28;5230;-60
2023/01/06 14:53:55;;;;;;;;;;;;;;;;;;4994274;28;4569;-59
2023/01/06 14:56:21;;;;;;;;;;;;;;;;;;5005820;28;5113;-60
2023/01/06 14:58:46;;;;;;;;;;;;;;;;;;5003818;28;1303;-60
2023/01/06 15:01:24;;;;;;;;;;;;;;;;;;5002768;28;4651;-62
2023/01/06 15:03:55;;;;;;;;;;;;;;;;;;4993679;28;5111;-59
2023/01/06 15:06:22;;;;;;;;;;;;;;;;;;4978978;28;5536;-61
2023/01/06 15:08:47;;;;;;;;;;;;;;;;;;4981171;28;4722;-61
2023/01/06 15:11:25;;;;;;;;;;;;;;;;;;4983652;28;1266;-61
2023/01/06 15:13:50;;;;;;;;;;;;;;;;;;4979698;28;5168;-61
2023/01/06 15:16:21;;;;;;;;;;;;;;;;;;4981288;28;5139;-61
2023/01/06 15:18:46;;;;;;;;;;;;;;;;;;4987879;28;4547;-61
2023/01/06 15:21:12;;;;;;;;;;;;;;;;;;4979257;28;4928;-60
2023/01/06 15:23:41;;;;;;;;;;;;;;;;;;4987202;28;5098;-61
2023/01/06 15:26:13;;;;;;;;;;;;;;;;;;4983705;28;1123;-60
2023/01/06 15:28:38;;;;;;;;;;;;;;;;;;4986051;28;5252;-60
2023/01/06 15:31:03;;;;;;;;;;;;;;;;;;4986696;28;4942;-61
2023/01/06 15:33:38;;;;;;;;;;;;;;;;;;4984277;28;4919;-62
2023/01/06 15:36:03;;;;;;;;;;;;;;;;;;4993601;28;4646;-61
2023/01/06 15:38:30;;;;;;;;;;;;;;;;;;5006074;28;5196;-62
2023/01/06 15:40:55;;;;;;;;;;;;;;;;;;5007648;28;1155;-63
2023/01/06 15:43:24;;;;;;;;;;;;;;;;;;5008654;28;5093;-65
2023/01/06 15:46:03;;;;;;;;;;;;;;;;;;5002020;28;5183;-63
2023/01/06 15:48:28;;;;;;;;;;;;;;;;;;5005183;28;5103;-63
2023/01/06 15:50:54;;;;;;;;;;;;;;;;;;5003562;28;5080;-65
2023/01/06 15:53:20;;;;;;;;;;;;;;;;;;5005151;28;4481;-64
2023/01/06 15:55:47;;;;;;;;;;;;;;;;;;5003702;28;3309;-64
2023/01/06 15:58:22;;;;;;;;;;;;;;;;;;5006469;28;4682;-64
2023/01/06 16:00:48;;;;;;;;;;;;;;;;;;5007590;28;5439;-65
2023/01/06 16:03:21;;;;;;;;;;;;;;;;;;5005375;28;5115;-65
2023/01/06 16:05:47;;;;;;;;;;;;;;;;;;5005113;28;5439;-64
2023/01/06 16:08:25;;;;;;;;;;;;;;;;;;5002547;28;1327;-62
2023/01/06 16:11:09;;;;;;;;;;;;;;;;;;5005271;28;4615;-63
2023/01/06 16:13:34;;;;;;;;;;;;;;;;;;5006590;28;4662;-63
2023/01/06 16:16:01;;;;;;;;;;;;;;;;;;5006812;28;4644;-63
2023/01/06 16:18:27;;;;;;;;;;;;;;;;;;4998818;28;4454;-64
2023/01/06 16:20:52;;;;;;;;;;;;;;;;;;5004849;28;5459;-62
2023/01/06 16:23:24;;;;;;;;;;;;;;;;;;5011242;28;5080;-64
2023/01/06 16:25:50;;;;;;;;;;;;;;;;;;5002849;28;1914;-62
2023/01/06 16:28:18;;;;;;;;;;;;;;;;;;5004653;28;5058;-65
2023/01/06 16:31:01;;;;;;;;;;;;;;;;;;5008785;28;4546;-65
2023/01/06 16:33:32;;;;;;;;;;;;;;;;;;5001725;28;4484;-65
2023/01/06 16:35:57;;;;;;;;;;;;;;;;;;5001015;28;4653;-64
2023/01/06 16:38:22;;;;;;;;;;;;;;;;;;5003202;28;4956;-62
2023/01/06 16:40:48;;;;;;;;;;;;;;;;;;5006386;28;1151;-63
2023/01/06 16:43:13;;;;;;;;;;;;;;;;;;5010008;28;5153;-64
2023/01/06 16:45:43;;;;;;;;;;;;;;;;;;5006918;28;5132;-64
2023/01/06 16:48:09;;;;;;;;;;;;;;;;;;5008656;28;5064;-61
2023/01/06 16:50:38;;;;;;;;;;;;;;;;;;5010192;28;4893;-62
2023/01/06 16:53:19;;;;;;;;;;;;;;;;;;5006097;28;3654;-66
2023/01/06 16:55:48;;;;;;;;;;;;;;;;;;5009096;28;4981;-65
2023/01/06 16:58:17;;;;;;;;;;;;;;;;;;5008487;28;4510;-64
2023/01/06 17:00:46;;;;;;;;;;;;;;;;;;5005292;28;5092;-61
2023/01/06 17:03:13;;;;;;;;;;;;;;;;;;4999780;28;4955;-59
2023/01/06 17:05:40;;;;;;;;;;;;;;;;;;5003418;28;4557;-61
2023/01/06 17:08:07;;;;;;;;;;;;;;;;;;5011830;28;3237;-62
2023/01/06 17:10:32;;;;;;;;;;;;;;;;;;5009597;28;4972;-63